D15 weather

Lake Isabella Airpark
Lake Isabella, Michigan, United States

Public forecast

Using degrees Fahrenheit for public forecast. Weather courtesy of forecast.io.

METAR (pilot weather report)

Closest report is Mount Pleasant Municipal Airport, 10.7 nm (19.8 km) E. Retrieved 2019/09/16 15:37 UTC (0 seconds ago):

KMOP 161537Z AUTO 02004KT 10SM SCT011 SCT026 OVC036 21/19 A3013 RMK AO2 T02100191

TAF (pilot weather forecast)

Closest forecast is MBS International Airport, 39.8 nm (73.7 km) E. Retrieved 2019/09/16 12:22 UTC (3 hours ago):

TAF KMBS 161120Z 1612/1712 VRB03KT 3SM BR OVC003 TEMPO 1612/1614 5SM BR SCT003 FM161400 02006KT P6SM BKN022 OVC035 FM161800 04010KT P6SM BKN040 FM162300 06006KT P6SM SCT035 FM170900 02003KT 6SM BR SCT030